sensor_id;sensor_type;location;lat;lon;timestamp;P1;durP1;ratioP1;P2;durP2;ratioP2
7495;SDS011;3789;47.064;15.482;2023-04-24T00:01:57;8.57;;;7.67;;
7495;SDS011;3789;47.064;15.482;2023-04-24T00:04:26;8.50;;;7.70;;
7495;SDS011;3789;47.064;15.482;2023-04-24T00:06:57;9.47;;;8.47;;
7495;SDS011;3789;47.064;15.482;2023-04-24T00:09:27;8.87;;;8.07;;
7495;SDS011;3789;47.064;15.482;2023-04-24T00:12:02;8.70;;;7.90;;
7495;SDS011;3789;47.064;15.482;2023-04-24T00:14:36;8.63;;;7.83;;
7495;SDS011;3789;47.064;15.482;2023-04-24T00:17:15;9.40;;;8.50;;
7495;SDS011;3789;47.064;15.482;2023-04-24T00:19:48;8.77;;;7.97;;
7495;SDS011;3789;47.064;15.482;2023-04-24T00:22:20;9.17;;;8.27;;
7495;SDS011;3789;47.064;15.482;2023-04-24T00:24:57;9.37;;;8.47;;
7495;SDS011;3789;47.064;15.482;2023-04-24T00:27:27;9.03;;;8.13;;
7495;SDS011;3789;47.064;15.482;2023-04-24T00:29:55;9.13;;;8.23;;
7495;SDS011;3789;47.064;15.482;2023-04-24T00:32:24;9.20;;;8.30;;
7495;SDS011;3789;47.064;15.482;2023-04-24T00:34:55;9.23;;;8.33;;
7495;SDS011;3789;47.064;15.482;2023-04-24T00:37:22;8.50;;;7.60;;
7495;SDS011;3789;47.064;15.482;2023-04-24T00:39:53;9.33;;;8.43;;
7495;SDS011;3789;47.064;15.482;2023-04-24T00:42:22;9.70;;;8.70;;
7495;SDS011;3789;47.064;15.482;2023-04-24T00:44:55;9.17;;;8.20;;
7495;SDS011;3789;47.064;15.482;2023-04-24T00:47:26;9.70;;;8.77;;
7495;SDS011;3789;47.064;15.482;2023-04-24T00:50:27;9.97;;;8.97;;
7495;SDS011;3789;47.064;15.482;2023-04-24T00:53:06;9.17;;;8.27;;
7495;SDS011;3789;47.064;15.482;2023-04-24T00:56:12;10.00;;;9.00;;
7495;SDS011;3789;47.064;15.482;2023-04-24T00:58:53;10.40;;;9.40;;
7495;SDS011;3789;47.064;15.482;2023-04-24T01:02:20;11.23;;;8.80;;
7495;SDS011;3789;47.064;15.482;2023-04-24T01:05:01;10.13;;;9.13;;
7495;SDS011;3789;47.064;15.482;2023-04-24T01:08:11;9.20;;;8.30;;
7495;SDS011;3789;47.064;15.482;2023-04-24T01:11:23;10.17;;;9.17;;
7495;SDS011;3789;47.064;15.482;2023-04-24T01:17:03;10.77;;;9.77;;
7495;SDS011;3789;47.064;15.482;2023-04-24T01:20:12;9.77;;;8.77;;
7495;SDS011;3789;47.064;15.482;2023-04-24T01:23:09;10.57;;;9.47;;
7495;SDS011;3789;47.064;15.482;2023-04-24T01:26:00;9.57;;;8.57;;
7495;SDS011;3789;47.064;15.482;2023-04-24T01:28:48;9.40;;;8.50;;
7495;SDS011;3789;47.064;15.482;2023-04-24T01:31:28;10.10;;;8.43;;
7495;SDS011;3789;47.064;15.482;2023-04-24T01:34:09;9.53;;;8.57;;
7495;SDS011;3789;47.064;15.482;2023-04-24T01:37:20;9.70;;;8.80;;
7495;SDS011;3789;47.064;15.482;2023-04-24T01:40:13;10.23;;;9.20;;
7495;SDS011;3789;47.064;15.482;2023-04-24T01:42:58;10.50;;;9.40;;
7495;SDS011;3789;47.064;15.482;2023-04-24T01:45:58;10.63;;;9.27;;
7495;SDS011;3789;47.064;15.482;2023-04-24T01:49:09;10.33;;;9.33;;
7495;SDS011;3789;47.064;15.482;2023-04-24T01:51:42;11.27;;;10.07;;
7495;SDS011;3789;47.064;15.482;2023-04-24T01:54:40;10.47;;;9.10;;
7495;SDS011;3789;47.064;15.482;2023-04-24T01:57:18;11.03;;;9.83;;
7495;SDS011;3789;47.064;15.482;2023-04-24T02:00:40;11.33;;;10.13;;
7495;SDS011;3789;47.064;15.482;2023-04-24T02:03:45;10.63;;;9.50;;
7495;SDS011;3789;47.064;15.482;2023-04-24T02:06:32;10.80;;;9.70;;
7495;SDS011;3789;47.064;15.482;2023-04-24T02:09:37;12.27;;;10.83;;
7495;SDS011;3789;47.064;15.482;2023-04-24T02:12:19;10.57;;;9.53;;
7495;SDS011;3789;47.064;15.482;2023-04-24T02:15:10;11.93;;;10.73;;
7495;SDS011;3789;47.064;15.482;2023-04-24T02:17:50;11.00;;;8.90;;
7495;SDS011;3789;47.064;15.482;2023-04-24T02:20:38;11.07;;;9.97;;
7495;SDS011;3789;47.064;15.482;2023-04-24T02:23:17;10.57;;;9.37;;
7495;SDS011;3789;47.064;15.482;2023-04-24T02:26:16;10.70;;;9.60;;
7495;SDS011;3789;47.064;15.482;2023-04-24T02:28:59;11.00;;;9.70;;
7495;SDS011;3789;47.064;15.482;2023-04-24T02:31:43;11.87;;;10.67;;
7495;SDS011;3789;47.064;15.482;2023-04-24T02:34:27;12.57;;;11.13;;
7495;SDS011;3789;47.064;15.482;2023-04-24T02:37:06;11.30;;;10.27;;
7495;SDS011;3789;47.064;15.482;2023-04-24T02:39:44;12.73;;;10.77;;
7495;SDS011;3789;47.064;15.482;2023-04-24T02:42:39;10.83;;;9.43;;
7495;SDS011;3789;47.064;15.482;2023-04-24T02:45:11;11.00;;;9.90;;
7495;SDS011;3789;47.064;15.482;2023-04-24T02:48:09;10.10;;;9.07;;
7495;SDS011;3789;47.064;15.482;2023-04-24T02:50:56;10.10;;;9.13;;
7495;SDS011;3789;47.064;15.482;2023-04-24T02:53:34;9.67;;;8.67;;
7495;SDS011;3789;47.064;15.482;2023-04-24T02:56:14;10.87;;;9.10;;
7495;SDS011;3789;47.064;15.482;2023-04-24T02:58:57;9.10;;;8.30;;
7495;SDS011;3789;47.064;15.482;2023-04-24T03:01:42;11.03;;;8.73;;
7495;SDS011;3789;47.064;15.482;2023-04-24T03:04:41;9.07;;;8.27;;
7495;SDS011;3789;47.064;15.482;2023-04-24T03:07:22;8.40;;;7.60;;
7495;SDS011;3789;47.064;15.482;2023-04-24T03:10:18;9.47;;;8.47;;
7495;SDS011;3789;47.064;15.482;2023-04-24T03:12:53;9.97;;;8.97;;
7495;SDS011;3789;47.064;15.482;2023-04-24T03:15:34;10.03;;;9.13;;
7495;SDS011;3789;47.064;15.482;2023-04-24T03:18:09;11.33;;;9.33;;
7495;SDS011;3789;47.064;15.482;2023-04-24T03:20:41;10.03;;;8.87;;
7495;SDS011;3789;47.064;15.482;2023-04-24T03:23:18;9.33;;;7.70;;
7495;SDS011;3789;47.064;15.482;2023-04-24T03:26:03;9.50;;;8.13;;
7495;SDS011;3789;47.064;15.482;2023-04-24T03:28:41;9.30;;;8.37;;
7495;SDS011;3789;47.064;15.482;2023-04-24T03:31:14;8.77;;;7.70;;
7495;SDS011;3789;47.064;15.482;2023-04-24T03:33:54;8.90;;;8.10;;
7495;SDS011;3789;47.064;15.482;2023-04-24T03:36:37;9.90;;;8.90;;
7495;SDS011;3789;47.064;15.482;2023-04-24T03:39:08;11.23;;;10.07;;
7495;SDS011;3789;47.064;15.482;2023-04-24T03:41:47;10.37;;;9.37;;
7495;SDS011;3789;47.064;15.482;2023-04-24T03:44:34;9.47;;;8.40;;
7495;SDS011;3789;47.064;15.482;2023-04-24T03:47:06;11.67;;;9.77;;
7495;SDS011;3789;47.064;15.482;2023-04-24T03:49:58;10.67;;;8.87;;
7495;SDS011;3789;47.064;15.482;2023-04-24T03:52:52;11.87;;;10.60;;
7495;SDS011;3789;47.064;15.482;2023-04-24T03:55:37;11.97;;;10.67;;
7495;SDS011;3789;47.064;15.482;2023-04-24T03:58:40;11.27;;;10.23;;
7495;SDS011;3789;47.064;15.482;2023-04-24T04:01:30;14.17;;;11.57;;
7495;SDS011;3789;47.064;15.482;2023-04-24T04:04:31;14.57;;;11.70;;
7495;SDS011;3789;47.064;15.482;2023-04-24T04:07:14;13.53;;;12.00;;
7495;SDS011;3789;47.064;15.482;2023-04-24T04:10:08;17.07;;;12.80;;
7495;SDS011;3789;47.064;15.482;2023-04-24T04:12:46;13.27;;;11.83;;
7495;SDS011;3789;47.064;15.482;2023-04-24T04:18:16;15.97;;;13.07;;
7495;SDS011;3789;47.064;15.482;2023-04-24T04:21:04;12.70;;;11.50;;
7495;SDS011;3789;47.064;15.482;2023-04-24T04:23:42;15.90;;;12.33;;
7495;SDS011;3789;47.064;15.482;2023-04-24T04:29:28;12.23;;;10.90;;
7495;SDS011;3789;47.064;15.482;2023-04-24T04:32:22;14.63;;;12.40;;
7495;SDS011;3789;47.064;15.482;2023-04-24T04:35:16;12.87;;;11.57;;
7495;SDS011;3789;47.064;15.482;2023-04-24T04:37:51;13.43;;;12.03;;
7495;SDS011;3789;47.064;15.482;2023-04-24T04:40:32;13.87;;;12.10;;
7495;SDS011;3789;47.064;15.482;2023-04-24T04:43:08;13.87;;;11.97;;
7495;SDS011;3789;47.064;15.482;2023-04-24T04:45:47;13.00;;;11.57;;
7495;SDS011;3789;47.064;15.482;2023-04-24T04:48:35;15.17;;;11.47;;
7495;SDS011;3789;47.064;15.482;2023-04-24T04:51:43;13.13;;;11.80;;
7495;SDS011;3789;47.064;15.482;2023-04-24T04:54:24;12.27;;;10.70;;
7495;SDS011;3789;47.064;15.482;2023-04-24T04:57:02;12.50;;;11.30;;
7495;SDS011;3789;47.064;15.482;2023-04-24T04:59:48;11.63;;;10.43;;
7495;SDS011;3789;47.064;15.482;2023-04-24T05:02:19;11.30;;;10.20;;
7495;SDS011;3789;47.064;15.482;2023-04-24T05:05:05;11.97;;;10.63;;
7495;SDS011;3789;47.064;15.482;2023-04-24T05:07:49;12.77;;;11.37;;
7495;SDS011;3789;47.064;15.482;2023-04-24T05:10:52;13.53;;;10.60;;
7495;SDS011;3789;47.064;15.482;2023-04-24T05:13:29;10.90;;;9.70;;
7495;SDS011;3789;47.064;15.482;2023-04-24T05:16:07;10.27;;;9.17;;
7495;SDS011;3789;47.064;15.482;2023-04-24T05:18:50;11.17;;;9.27;;
7495;SDS011;3789;47.064;15.482;2023-04-24T05:21:32;9.67;;;8.77;;
7495;SDS011;3789;47.064;15.482;2023-04-24T05:24:28;11.23;;;9.20;;
7495;SDS011;3789;47.064;15.482;2023-04-24T05:27:28;10.80;;;8.63;;
7495;SDS011;3789;47.064;15.482;2023-04-24T05:30:02;9.17;;;8.27;;
7495;SDS011;3789;47.064;15.482;2023-04-24T05:32:39;11.03;;;8.37;;
7495;SDS011;3789;47.064;15.482;2023-04-24T05:35:08;9.27;;;8.37;;
7495;SDS011;3789;47.064;15.482;2023-04-24T05:37:36;9.23;;;8.23;;
7495;SDS011;3789;47.064;15.482;2023-04-24T05:40:12;9.80;;;8.83;;
7495;SDS011;3789;47.064;15.482;2023-04-24T05:42:52;9.10;;;7.97;;
7495;SDS011;3789;47.064;15.482;2023-04-24T05:45:32;9.27;;;8.37;;
7495;SDS011;3789;47.064;15.482;2023-04-24T05:48:19;8.73;;;7.87;;
7495;SDS011;3789;47.064;15.482;2023-04-24T05:51:13;8.47;;;7.67;;
7495;SDS011;3789;47.064;15.482;2023-04-24T05:53:55;8.73;;;7.83;;
7495;SDS011;3789;47.064;15.482;2023-04-24T05:56:56;9.70;;;8.70;;
7495;SDS011;3789;47.064;15.482;2023-04-24T05:59:36;9.57;;;8.60;;
7495;SDS011;3789;47.064;15.482;2023-04-24T06:02:05;8.70;;;7.83;;
7495;SDS011;3789;47.064;15.482;2023-04-24T06:04:40;9.43;;;8.13;;
7495;SDS011;3789;47.064;15.482;2023-04-24T06:07:13;9.90;;;8.93;;
7495;SDS011;3789;47.064;15.482;2023-04-24T06:09:49;8.37;;;7.53;;
7495;SDS011;3789;47.064;15.482;2023-04-24T06:12:24;8.20;;;7.33;;
7495;SDS011;3789;47.064;15.482;2023-04-24T06:15:04;8.20;;;7.40;;
7495;SDS011;3789;47.064;15.482;2023-04-24T06:17:45;10.43;;;7.97;;
7495;SDS011;3789;47.064;15.482;2023-04-24T06:20:23;8.60;;;7.67;;
7495;SDS011;3789;47.064;15.482;2023-04-24T06:22:58;9.03;;;7.70;;
7495;SDS011;3789;47.064;15.482;2023-04-24T06:25:27;8.80;;;8.00;;
7495;SDS011;3789;47.064;15.482;2023-04-24T06:31:07;8.07;;;7.27;;
7495;SDS011;3789;47.064;15.482;2023-04-24T06:33:40;7.37;;;6.63;;
7495;SDS011;3789;47.064;15.482;2023-04-24T06:36:41;7.50;;;6.80;;
7495;SDS011;3789;47.064;15.482;2023-04-24T06:39:16;7.60;;;6.63;;
7495;SDS011;3789;47.064;15.482;2023-04-24T06:41:59;7.67;;;6.90;;
7495;SDS011;3789;47.064;15.482;2023-04-24T06:44:44;7.53;;;6.73;;
7495;SDS011;3789;47.064;15.482;2023-04-24T06:47:36;8.37;;;7.13;;
7495;SDS011;3789;47.064;15.482;2023-04-24T06:50:15;7.60;;;6.90;;
7495;SDS011;3789;47.064;15.482;2023-04-24T06:52:45;7.63;;;6.63;;
7495;SDS011;3789;47.064;15.482;2023-04-24T06:55:14;8.20;;;6.80;;
7495;SDS011;3789;47.064;15.482;2023-04-24T06:57:46;7.83;;;7.03;;
7495;SDS011;3789;47.064;15.482;2023-04-24T07:00:14;7.35;;;6.68;;
7495;SDS011;3789;47.064;15.482;2023-04-24T07:02:42;6.80;;;6.13;;
7495;SDS011;3789;47.064;15.482;2023-04-24T07:05:11;7.50;;;6.63;;
7495;SDS011;3789;47.064;15.482;2023-04-24T07:07:40;7.90;;;7.07;;
7495;SDS011;3789;47.064;15.482;2023-04-24T07:10:19;7.57;;;6.57;;
7495;SDS011;3789;47.064;15.482;2023-04-24T07:12:56;7.35;;;6.65;;
7495;SDS011;3789;47.064;15.482;2023-04-24T07:15:24;8.03;;;7.23;;
7495;SDS011;3789;47.064;15.482;2023-04-24T07:17:52;7.97;;;7.17;;
7495;SDS011;3789;47.064;15.482;2023-04-24T07:20:21;10.97;;;7.63;;
7495;SDS011;3789;47.064;15.482;2023-04-24T07:22:54;7.95;;;6.90;;
7495;SDS011;3789;47.064;15.482;2023-04-24T07:25:23;8.10;;;6.97;;
7495;SDS011;3789;47.064;15.482;2023-04-24T07:27:53;8.43;;;7.57;;
7495;SDS011;3789;47.064;15.482;2023-04-24T07:30:30;10.00;;;7.90;;
7495;SDS011;3789;47.064;15.482;2023-04-24T07:33:03;8.70;;;7.83;;
7495;SDS011;3789;47.064;15.482;2023-04-24T07:35:45;9.60;;;8.70;;
7495;SDS011;3789;47.064;15.482;2023-04-24T07:38:19;9.63;;;8.67;;
7495;SDS011;3789;47.064;15.482;2023-04-24T07:40:50;13.83;;;10.00;;
7495;SDS011;3789;47.064;15.482;2023-04-24T07:43:27;10.33;;;9.23;;
7495;SDS011;3789;47.064;15.482;2023-04-24T07:45:56;11.30;;;10.10;;
7495;SDS011;3789;47.064;15.482;2023-04-24T07:48:27;12.73;;;9.37;;
7495;SDS011;3789;47.064;15.482;2023-04-24T07:50:54;12.20;;;9.90;;
7495;SDS011;3789;47.064;15.482;2023-04-24T07:53:23;13.73;;;10.73;;
7495;SDS011;3789;47.064;15.482;2023-04-24T07:55:56;12.33;;;9.37;;
7495;SDS011;3789;47.064;15.482;2023-04-24T07:58:23;11.97;;;9.37;;
7495;SDS011;3789;47.064;15.482;2023-04-24T08:00:53;10.43;;;9.43;;
7495;SDS011;3789;47.064;15.482;2023-04-24T08:03:24;11.93;;;9.03;;
7495;SDS011;3789;47.064;15.482;2023-04-24T08:05:55;10.67;;;9.57;;
7495;SDS011;3789;47.064;15.482;2023-04-24T08:08:24;15.60;;;10.87;;
7495;SDS011;3789;47.064;15.482;2023-04-24T08:10:53;13.47;;;11.00;;
7495;SDS011;3789;47.064;15.482;2023-04-24T08:13:24;14.87;;;10.73;;
7495;SDS011;3789;47.064;15.482;2023-04-24T08:16:03;10.57;;;9.50;;
7495;SDS011;3789;47.064;15.482;2023-04-24T08:18:33;14.87;;;10.80;;
7495;SDS011;3789;47.064;15.482;2023-04-24T08:21:02;12.03;;;10.83;;
7495;SDS011;3789;47.064;15.482;2023-04-24T08:23:31;13.13;;;11.60;;
7495;SDS011;3789;47.064;15.482;2023-04-24T08:26:10;15.73;;;11.20;;
7495;SDS011;3789;47.064;15.482;2023-04-24T08:28:39;14.40;;;11.73;;
7495;SDS011;3789;47.064;15.482;2023-04-24T08:31:09;14.33;;;12.83;;
7495;SDS011;3789;47.064;15.482;2023-04-24T08:33:39;13.13;;;11.83;;
7495;SDS011;3789;47.064;15.482;2023-04-24T08:36:07;15.93;;;12.50;;
7495;SDS011;3789;47.064;15.482;2023-04-24T08:38:37;15.20;;;13.17;;
7495;SDS011;3789;47.064;15.482;2023-04-24T08:41:09;11.73;;;10.37;;
7495;SDS011;3789;47.064;15.482;2023-04-24T08:43:40;12.07;;;10.80;;
7495;SDS011;3789;47.064;15.482;2023-04-24T08:46:10;13.63;;;10.17;;
7495;SDS011;3789;47.064;15.482;2023-04-24T08:48:40;12.37;;;10.30;;
7495;SDS011;3789;47.064;15.482;2023-04-24T08:51:10;14.97;;;11.30;;
7495;SDS011;3789;47.064;15.482;2023-04-24T08:53:41;14.13;;;11.63;;
7495;SDS011;3789;47.064;15.482;2023-04-24T08:56:11;15.10;;;10.20;;
7495;SDS011;3789;47.064;15.482;2023-04-24T08:58:41;12.60;;;11.30;;
7495;SDS011;3789;47.064;15.482;2023-04-24T09:01:12;12.90;;;11.60;;
7495;SDS011;3789;47.064;15.482;2023-04-24T09:03:45;12.83;;;11.37;;
7495;SDS011;3789;47.064;15.482;2023-04-24T09:06:20;16.43;;;14.00;;
7495;SDS011;3789;47.064;15.482;2023-04-24T09:08:52;15.03;;;13.43;;
7495;SDS011;3789;47.064;15.482;2023-04-24T09:11:23;11.77;;;10.53;;
7495;SDS011;3789;47.064;15.482;2023-04-24T09:13:54;15.47;;;12.63;;
7495;SDS011;3789;47.064;15.482;2023-04-24T09:16:26;13.33;;;10.27;;
7495;SDS011;3789;47.064;15.482;2023-04-24T09:19:05;9.37;;;8.47;;
7495;SDS011;3789;47.064;15.482;2023-04-24T09:21:36;10.83;;;8.40;;
7495;SDS011;3789;47.064;15.482;2023-04-24T09:24:16;9.40;;;7.63;;
7495;SDS011;3789;47.064;15.482;2023-04-24T09:26:59;10.40;;;8.87;;
7495;SDS011;3789;47.064;15.482;2023-04-24T09:29:33;9.73;;;8.70;;
7495;SDS011;3789;47.064;15.482;2023-04-24T09:32:24;10.53;;;8.40;;
7495;SDS011;3789;47.064;15.482;2023-04-24T09:37:42;9.17;;;8.27;;
7495;SDS011;3789;47.064;15.482;2023-04-24T09:40:19;9.67;;;7.57;;
7495;SDS011;3789;47.064;15.482;2023-04-24T09:42:56;9.43;;;6.83;;
7495;SDS011;3789;47.064;15.482;2023-04-24T09:45:40;5.63;;;5.00;;
7495;SDS011;3789;47.064;15.482;2023-04-24T09:48:09;5.23;;;4.77;;
7495;SDS011;3789;47.064;15.482;2023-04-24T09:50:47;5.77;;;4.47;;
7495;SDS011;3789;47.064;15.482;2023-04-24T09:53:24;4.60;;;4.20;;
7495;SDS011;3789;47.064;15.482;2023-04-24T09:55:54;5.07;;;4.43;;
7495;SDS011;3789;47.064;15.482;2023-04-24T09:58:25;5.13;;;3.70;;
7495;SDS011;3789;47.064;15.482;2023-04-24T10:00:55;4.00;;;3.63;;
7495;SDS011;3789;47.064;15.482;2023-04-24T10:03:25;5.03;;;3.47;;
7495;SDS011;3789;47.064;15.482;2023-04-24T10:06:03;5.47;;;3.40;;
7495;SDS011;3789;47.064;15.482;2023-04-24T10:08:38;2.50;;;2.30;;
7495;SDS011;3789;47.064;15.482;2023-04-24T10:11:09;3.83;;;2.50;;
7495;SDS011;3789;47.064;15.482;2023-04-24T10:13:40;3.30;;;2.70;;
7495;SDS011;3789;47.064;15.482;2023-04-24T10:16:08;2.80;;;2.50;;
7495;SDS011;3789;47.064;15.482;2023-04-24T10:18:45;2.80;;;2.10;;
7495;SDS011;3789;47.064;15.482;2023-04-24T10:21:22;2.20;;;2.00;;
7495;SDS011;3789;47.064;15.482;2023-04-24T10:23:52;2.07;;;1.87;;
7495;SDS011;3789;47.064;15.482;2023-04-24T10:26:23;1.90;;;1.80;;
7495;SDS011;3789;47.064;15.482;2023-04-24T10:28:54;1.90;;;1.80;;
7495;SDS011;3789;47.064;15.482;2023-04-24T10:31:26;2.17;;;2.03;;
7495;SDS011;3789;47.064;15.482;2023-04-24T10:34:08;2.17;;;1.97;;
7495;SDS011;3789;47.064;15.482;2023-04-24T10:36:50;2.30;;;1.90;;
7495;SDS011;3789;47.064;15.482;2023-04-24T10:39:26;2.83;;;1.90;;
7495;SDS011;3789;47.064;15.482;2023-04-24T10:42:13;2.00;;;1.80;;
7495;SDS011;3789;47.064;15.482;2023-04-24T10:45:07;2.00;;;1.80;;
7495;SDS011;3789;47.064;15.482;2023-04-24T10:47:52;2.13;;;1.40;;
7495;SDS011;3789;47.064;15.482;2023-04-24T10:53:22;1.60;;;1.50;;
7495;SDS011;3789;47.064;15.482;2023-04-24T10:56:08;2.30;;;1.23;;
7495;SDS011;3789;47.064;15.482;2023-04-24T10:58:51;1.70;;;1.40;;
7495;SDS011;3789;47.064;15.482;2023-04-24T11:01:24;1.63;;;1.53;;
7495;SDS011;3789;47.064;15.482;2023-04-24T11:03:57;1.80;;;1.50;;
7495;SDS011;3789;47.064;15.482;2023-04-24T11:06:34;1.87;;;1.77;;
7495;SDS011;3789;47.064;15.482;2023-04-24T11:09:08;1.40;;;1.20;;
7495;SDS011;3789;47.064;15.482;2023-04-24T11:12:05;1.50;;;1.37;;
7495;SDS011;3789;47.064;15.482;2023-04-24T11:17:35;1.30;;;1.20;;
7495;SDS011;3789;47.064;15.482;2023-04-24T11:20:27;1.40;;;1.30;;
7495;SDS011;3789;47.064;15.482;2023-04-24T11:22:57;1.43;;;1.33;;
7495;SDS011;3789;47.064;15.482;2023-04-24T11:25:35;1.30;;;1.20;;
7495;SDS011;3789;47.064;15.482;2023-04-24T11:28:14;2.45;;;1.10;;
7495;SDS011;3789;47.064;15.482;2023-04-24T11:30:45;1.50;;;1.30;;
7495;SDS011;3789;47.064;15.482;2023-04-24T11:33:15;1.20;;;1.10;;
7495;SDS011;3789;47.064;15.482;2023-04-24T11:35:50;1.30;;;1.15;;
7495;SDS011;3789;47.064;15.482;2023-04-24T11:38:19;1.40;;;1.30;;
7495;SDS011;3789;47.064;15.482;2023-04-24T11:40:51;1.27;;;1.17;;
7495;SDS011;3789;47.064;15.482;2023-04-24T11:43:22;1.52;;;1.40;;
7495;SDS011;3789;47.064;15.482;2023-04-24T11:45:51;1.90;;;1.40;;
7495;SDS011;3789;47.064;15.482;2023-04-24T11:48:34;1.98;;;1.33;;
7495;SDS011;3789;47.064;15.482;2023-04-24T11:51:04;1.40;;;1.30;;
7495;SDS011;3789;47.064;15.482;2023-04-24T11:53:42;1.52;;;1.42;;
7495;SDS011;3789;47.064;15.482;2023-04-24T11:56:11;1.33;;;1.23;;
7495;SDS011;3789;47.064;15.482;2023-04-24T11:58:47;1.55;;;0.98;;
7495;SDS011;3789;47.064;15.482;2023-04-24T12:01:15;1.38;;;1.27;;
7495;SDS011;3789;47.064;15.482;2023-04-24T12:03:48;1.65;;;1.10;;
7495;SDS011;3789;47.064;15.482;2023-04-24T12:06:19;0.90;;;0.90;;
7495;SDS011;3789;47.064;15.482;2023-04-24T12:08:49;1.30;;;1.20;;
7495;SDS011;3789;47.064;15.482;2023-04-24T12:11:31;1.25;;;1.15;;
7495;SDS011;3789;47.064;15.482;2023-04-24T12:14:12;1.23;;;1.10;;
7495;SDS011;3789;47.064;15.482;2023-04-24T12:16:47;1.30;;;1.20;;
7495;SDS011;3789;47.064;15.482;2023-04-24T12:19:21;1.30;;;1.20;;
7495;SDS011;3789;47.064;15.482;2023-04-24T12:22:03;1.35;;;1.20;;
7495;SDS011;3789;47.064;15.482;2023-04-24T12:24:34;1.63;;;1.33;;
7495;SDS011;3789;47.064;15.482;2023-04-24T12:27:18;1.73;;;1.52;;
7495;SDS011;3789;47.064;15.482;2023-04-24T12:30:02;1.10;;;1.00;;
7495;SDS011;3789;47.064;15.482;2023-04-24T12:33:35;1.00;;;0.90;;
7495;SDS011;3789;47.064;15.482;2023-04-24T12:36:12;2.17;;;1.10;;
7495;SDS011;3789;47.064;15.482;2023-04-24T12:38:43;1.70;;;1.10;;
7495;SDS011;3789;47.064;15.482;2023-04-24T12:41:13;1.42;;;1.10;;
7495;SDS011;3789;47.064;15.482;2023-04-24T12:43:53;0.98;;;0.98;;
7495;SDS011;3789;47.064;15.482;2023-04-24T12:46:23;1.65;;;0.90;;
7495;SDS011;3789;47.064;15.482;2023-04-24T12:48:50;2.25;;;0.90;;
7495;SDS011;3789;47.064;15.482;2023-04-24T12:51:22;0.90;;;0.90;;
7495;SDS011;3789;47.064;15.482;2023-04-24T12:53:51;1.48;;;0.75;;
7495;SDS011;3789;47.064;15.482;2023-04-24T12:56:26;0.90;;;0.90;;
7495;SDS011;3789;47.064;15.482;2023-04-24T12:58:54;0.63;;;0.63;;
7495;SDS011;3789;47.064;15.482;2023-04-24T13:01:35;1.52;;;0.80;;
7495;SDS011;3789;47.064;15.482;2023-04-24T13:04:05;1.08;;;0.70;;
7495;SDS011;3789;47.064;15.482;2023-04-24T13:07:01;0.73;;;0.73;;
7495;SDS011;3789;47.064;15.482;2023-04-24T13:09:53;0.68;;;0.68;;
7495;SDS011;3789;47.064;15.482;2023-04-24T13:12:48;1.00;;;0.90;;
7495;SDS011;3789;47.064;15.482;2023-04-24T13:15:40;0.80;;;0.80;;
7495;SDS011;3789;47.064;15.482;2023-04-24T13:18:33;1.08;;;1.00;;
7495;SDS011;3789;47.064;15.482;2023-04-24T13:21:25;0.88;;;0.88;;
7495;SDS011;3789;47.064;15.482;2023-04-24T13:24:20;1.33;;;1.10;;
7495;SDS011;3789;47.064;15.482;2023-04-24T13:27:16;0.93;;;0.90;;
7495;SDS011;3789;47.064;15.482;2023-04-24T13:30:09;1.60;;;1.10;;
7495;SDS011;3789;47.064;15.482;2023-04-24T13:33:02;1.10;;;1.00;;
7495;SDS011;3789;47.064;15.482;2023-04-24T13:35:55;1.10;;;1.00;;
7495;SDS011;3789;47.064;15.482;2023-04-24T13:38:23;1.20;;;1.10;;
7495;SDS011;3789;47.064;15.482;2023-04-24T13:40:52;1.10;;;1.00;;
7495;SDS011;3789;47.064;15.482;2023-04-24T13:43:28;1.20;;;1.10;;
7495;SDS011;3789;47.064;15.482;2023-04-24T13:46:01;1.90;;;1.20;;
7495;SDS011;3789;47.064;15.482;2023-04-24T13:48:29;2.60;;;1.43;;
7495;SDS011;3789;47.064;15.482;2023-04-24T13:50:58;1.90;;;1.70;;
7495;SDS011;3789;47.064;15.482;2023-04-24T13:53:27;1.77;;;1.50;;
7495;SDS011;3789;47.064;15.482;2023-04-24T13:55:56;1.57;;;1.33;;
7495;SDS011;3789;47.064;15.482;2023-04-24T13:58:25;1.93;;;1.07;;
7495;SDS011;3789;47.064;15.482;2023-04-24T14:00:55;1.33;;;1.23;;
7495;SDS011;3789;47.064;15.482;2023-04-24T14:03:23;1.23;;;1.13;;
7495;SDS011;3789;47.064;15.482;2023-04-24T14:05:52;1.40;;;1.30;;
7495;SDS011;3789;47.064;15.482;2023-04-24T14:08:23;2.37;;;1.20;;
7495;SDS011;3789;47.064;15.482;2023-04-24T14:11:00;1.40;;;1.30;;
7495;SDS011;3789;47.064;15.482;2023-04-24T14:13:30;2.37;;;1.60;;
7495;SDS011;3789;47.064;15.482;2023-04-24T14:16:01;1.37;;;1.27;;
7495;SDS011;3789;47.064;15.482;2023-04-24T14:18:29;1.50;;;1.40;;
7495;SDS011;3789;47.064;15.482;2023-04-24T14:21:01;6.97;;;5.07;;
7495;SDS011;3789;47.064;15.482;2023-04-24T14:23:35;4.70;;;4.00;;
7495;SDS011;3789;47.064;15.482;2023-04-24T14:26:03;2.77;;;1.50;;
7495;SDS011;3789;47.064;15.482;2023-04-24T14:28:32;2.77;;;1.47;;
7495;SDS011;3789;47.064;15.482;2023-04-24T14:31:03;2.13;;;1.67;;
7495;SDS011;3789;47.064;15.482;2023-04-24T14:33:33;3.43;;;2.10;;
7495;SDS011;3789;47.064;15.482;2023-04-24T14:36:12;2.30;;;2.10;;
7495;SDS011;3789;47.064;15.482;2023-04-24T14:38:43;1.97;;;1.77;;
7495;SDS011;3789;47.064;15.482;2023-04-24T14:41:11;2.77;;;2.27;;
7495;SDS011;3789;47.064;15.482;2023-04-24T14:43:40;2.13;;;1.93;;
7495;SDS011;3789;47.064;15.482;2023-04-24T14:46:10;1.73;;;1.63;;
7495;SDS011;3789;47.064;15.482;2023-04-24T14:48:43;2.07;;;1.70;;
7495;SDS011;3789;47.064;15.482;2023-04-24T14:51:11;2.93;;;1.67;;
7495;SDS011;3789;47.064;15.482;2023-04-24T14:53:40;4.17;;;1.90;;
7495;SDS011;3789;47.064;15.482;2023-04-24T14:56:10;2.50;;;1.70;;
7495;SDS011;3789;47.064;15.482;2023-04-24T14:58:43;3.20;;;1.70;;
7495;SDS011;3789;47.064;15.482;2023-04-24T15:01:11;1.50;;;1.40;;
7495;SDS011;3789;47.064;15.482;2023-04-24T15:03:40;1.53;;;1.43;;
7495;SDS011;3789;47.064;15.482;2023-04-24T15:06:10;1.70;;;1.60;;
7495;SDS011;3789;47.064;15.482;2023-04-24T15:08:47;1.90;;;1.60;;
7495;SDS011;3789;47.064;15.482;2023-04-24T15:11:17;2.73;;;1.50;;
7495;SDS011;3789;47.064;15.482;2023-04-24T15:13:44;3.53;;;1.50;;
7495;SDS011;3789;47.064;15.482;2023-04-24T15:16:14;1.87;;;1.30;;
7495;SDS011;3789;47.064;15.482;2023-04-24T15:18:44;1.40;;;1.30;;
7495;SDS011;3789;47.064;15.482;2023-04-24T15:21:12;1.80;;;1.70;;
7495;SDS011;3789;47.064;15.482;2023-04-24T15:23:42;1.60;;;1.50;;
7495;SDS011;3789;47.064;15.482;2023-04-24T15:26:10;1.53;;;1.43;;
7495;SDS011;3789;47.064;15.482;2023-04-24T15:28:45;2.20;;;1.60;;
7495;SDS011;3789;47.064;15.482;2023-04-24T15:31:22;1.40;;;1.30;;
7495;SDS011;3789;47.064;15.482;2023-04-24T15:33:54;3.13;;;1.37;;
7495;SDS011;3789;47.064;15.482;2023-04-24T15:36:25;2.17;;;1.47;;
7495;SDS011;3789;47.064;15.482;2023-04-24T15:38:57;1.60;;;1.30;;
7495;SDS011;3789;47.064;15.482;2023-04-24T15:41:29;1.40;;;1.30;;
7495;SDS011;3789;47.064;15.482;2023-04-24T15:44:01;1.40;;;1.30;;
7495;SDS011;3789;47.064;15.482;2023-04-24T15:46:36;1.60;;;1.50;;
7495;SDS011;3789;47.064;15.482;2023-04-24T15:49:05;1.60;;;1.50;;
7495;SDS011;3789;47.064;15.482;2023-04-24T15:51:34;1.77;;;1.60;;
7495;SDS011;3789;47.064;15.482;2023-04-24T15:54:13;2.77;;;1.47;;
7495;SDS011;3789;47.064;15.482;2023-04-24T15:56:43;1.80;;;1.60;;
7495;SDS011;3789;47.064;15.482;2023-04-24T15:59:13;2.33;;;1.90;;
7495;SDS011;3789;47.064;15.482;2023-04-24T16:01:46;2.13;;;1.70;;
7495;SDS011;3789;47.064;15.482;2023-04-24T16:04:18;2.67;;;1.33;;
7495;SDS011;3789;47.064;15.482;2023-04-24T16:06:52;2.13;;;1.30;;
7495;SDS011;3789;47.064;15.482;2023-04-24T16:09:32;1.50;;;1.40;;
7495;SDS011;3789;47.064;15.482;2023-04-24T16:12:02;1.30;;;1.20;;
7495;SDS011;3789;47.064;15.482;2023-04-24T16:14:40;2.23;;;1.37;;
7495;SDS011;3789;47.064;15.482;2023-04-24T16:17:11;2.30;;;1.30;;
7495;SDS011;3789;47.064;15.482;2023-04-24T16:19:41;1.43;;;1.27;;
7495;SDS011;3789;47.064;15.482;2023-04-24T16:22:09;1.63;;;1.40;;